Latest Weather Observations for Lajamanu

IDD60801

Issued at 9:31 am CST Saturday 25 March 2017 (issued every 30 minutes, with the page automatically refreshed every 10 minutes)

About weather observations | Map of weather stations | Latest weather observations for NT | Other Formats
Station Details ID: 014829 Name: LAJAMANU AIRPORT Lat: -18.33 Lon: 130.64 Height: 315.6 m
Data from the previous 72 hours. | See also: Recent months at Lajamanu
Date/Time
CST
Temp
°C
App
Temp
°C
Dew
Point
°C
Rel
Hum
%
Delta-T
°C
Wind Press
QNH
hPa
Press
MSL
hPa
Rain since
9am
mm
Dir  Spd
km/h
Gust
km/h
Spd
kts
Gust
kts
25/09:30am 29.2 31.9 20.6 59 5.8 W 7 11 4 6 1010.4 1008.1 0.0
25/09:00am 27.5 30.0 20.3 65 4.8 WSW 7 11 4 6 1010.2 1007.9 3.2
25/08:30am 26.5 28.7 20.3 68 4.1 W 9 13 5 7 1010.1 1007.8 3.2
25/08:00am 24.2 27.0 20.5 80 2.4 WNW 6 9 3 5 1009.8 1007.5 3.2
25/07:30am 24.0 26.5 19.9 78 2.7 W 6 9 3 5 1009.7 1007.4 3.2
25/07:00am 24.5 26.3 19.6 74 3.2 SSW 9 15 5 8 1009.9 1007.6 3.2
25/06:30am 24.7 26.0 20.2 76 3.0 SSW 13 19 7 10 1010.2 1007.9 3.2
25/06:00am 23.8 25.6 19.5 77 2.8 S 9 11 5 6 1010.9 1008.6 3.2
25/05:30am 24.0 25.7 18.6 72 3.5 ESE 7 19 4 10 1010.8 1008.5 3.2
25/05:00am 24.1 25.4 20.8 82 2.2 NNE 15 24 8 13 1009.7 1007.4 3.2
25/04:30am 23.2 27.1 20.3 84 1.9 CALM 0 0 0 0 1008.8 1006.6 3.2
25/04:00am 23.6 25.8 20.5 83 2.0 NW 9 15 5 8 1008.3 1006.0 3.2
25/03:30am 23.8 25.4 20.7 83 2.1 NNW 13 17 7 9 1008.5 1006.2 3.2
25/03:00am 23.5 23.6 19.2 77 2.8 WSW 17 24 9 13 1008.7 1006.5 3.2
25/02:30am 23.7 24.8 21.2 86 1.7 SW 17 22 9 12 1009.2 1007.0 3.2
25/02:00am 23.5 22.0 21.0 86 1.7 SSE 30 50 16 27 1010.3 1008.0 1.4
25/01:51am 23.6 21.7 20.1 81 2.3 SSE 30 50 16 27 1010.0 1007.7 1.0
25/01:40am 25.1 24.2 19.9 73 3.4 SE 24 43 13 23 1010.1 1007.8 0.4
25/01:30am 27.7 30.8 21.5 69 4.2 W 7 13 4 7 1009.5 1007.2 0.0
25/01:00am 28.0 30.9 21.1 66 4.6 WNW 7 9 4 5 1009.2 1007.0 0.0
25/12:30am 28.4 30.6 21.2 65 4.9 NW 11 13 6 7 1009.5 1007.2 0.0
25/12:00am 27.9 30.1 20.5 64 4.9 NW 9 11 5 6 1009.8 1007.5 0.0
 
Date/Time
CST
Temp
°C
App
Temp
°C
Dew
Point
°C
Rel
Hum
%
Delta-T
°C
Wind Press
QNH
hPa
Press
MSL
hPa
Rain since
9am
mm
Dir  Spd
km/h
Gust
km/h
Spd
kts
Gust
kts
24/11:30pm 29.5 31.1 19.2 54 6.8 NNE 9 13 5 7 1009.7 1007.4 0.0
24/11:00pm 29.0 31.0 19.9 58 6.0 N 9 13 5 7 1009.6 1007.3 0.0
24/10:30pm 27.7 30.4 19.5 61 5.4 NNE 4 7 2 4 1009.2 1007.0 0.0
24/10:00pm 28.4 30.9 19.9 60 5.6 NE 6 9 3 5 1009.1 1006.9 0.0
24/09:30pm 28.4 30.5 19.3 57 6.0 NE 7 7 4 4 1009.0 1006.8 0.0
24/09:00pm 28.6 31.5 19.0 56 6.3 NE 2 7 1 4 1008.6 1006.3 0.0
24/08:30pm 29.7 31.4 19.4 54 6.8 N 9 13 5 7 1008.3 1006.0 0.0
24/08:00pm 29.0 31.1 19.0 54 6.5 NNW 6 9 3 5 1008.1 1005.8 0.0
24/07:30pm 29.4 32.2 18.8 53 6.9 NNW 2 6 1 3 1007.9 1005.6 0.0
24/07:00pm 30.7 33.9 18.8 49 7.8 CALM 0 0 0 0 1007.6 1005.3 0.0
24/06:30pm 31.8 33.3 18.0 43 9.0 NNW 7 11 4 6 1007.4 1005.1 0.0
24/06:00pm 32.5 33.0 17.5 40 9.7 N 11 17 6 9 1007.1 1004.8 0.0
24/05:30pm 35.0 33.3 16.3 32 12.0 E 20 41 11 22 1006.8 1004.5 0.0
24/05:00pm 37.2 37.2 16.2 29 13.5 E 11 17 6 9 1006.5 1004.2 0.0
24/04:30pm 37.1 36.9 16.6 29 13.3 ENE 13 17 7 9 1006.7 1004.4 0.0
24/04:00pm 37.2 37.2 17.2 30 13.1 ESE 13 19 7 10 1006.9 1004.6 0.0
24/03:30pm 36.2 37.2 17.8 33 12.1 ENE 9 15 5 8 1007.5 1005.2 0.0
24/03:00pm 37.4 39.0 17.9 31 12.9 ENE 6 11 3 6 1007.7 1005.4 0.0
24/02:30pm 35.9 36.0 16.6 31 12.5 E 11 20 6 11 1008.2 1005.9 0.0
24/02:00pm 36.9 38.4 18.0 33 12.5 NNE 7 15 4 8 1008.5 1006.2 0.0
24/01:30pm 36.8 38.1 18.4 34 12.2 SE 9 13 5 7 1009.0 1006.8 0.0
24/01:00pm 35.9 36.8 16.6 31 12.5 N 7 11 4 6 1009.6 1007.3 0.0
24/12:30pm 35.7 37.1 18.7 36 11.3 N 9 15 5 8 1010.2 1007.9 0.0
24/12:00pm 35.3 36.8 18.8 37 11.0 NW 9 15 5 8 1010.8 1008.5 0.0
24/11:30am 34.7 36.3 19.1 39 10.4 NNW 9 19 5 10 1011.2 1008.9 0.0
24/11:00am 34.2 34.7 18.3 39 10.5 N 13 19 7 10 1011.5 1009.2 0.0
24/10:30am 33.9 35.0 18.8 41 10.0 N 11 17 6 9 1011.7 1009.5 0.0
24/10:00am 32.9 34.2 19.4 45 9.0 N 11 17 6 9 1011.9 1009.7 0.0
24/09:30am 31.2 34.0 20.5 53 7.2 W 6 7 3 4 1011.7 1009.5 0.0
24/09:00am 30.6 34.5 21.1 57 6.4 WNW 2 7 1 4 1011.5 1009.2 0.0
24/08:30am 27.9 31.7 21.0 66 4.6 W 2 6 1 3 1011.1 1008.8 0.0
24/08:00am 26.2 29.9 21.4 75 3.2 N 4 6 2 3 1010.7 1008.4 0.0
24/07:30am 25.5 28.9 21.6 79 2.6 NNW 6 7 3 4 1010.8 1008.5 0.0
24/07:00am 24.5 27.5 20.8 80 2.5 NW 6 7 3 4 1010.6 1008.3 0.0
24/06:30am 24.6 27.5 20.7 79 2.6 W 6 7 3 4 1010.4 1008.1 0.0
24/06:00am 24.4 27.7 20.7 80 2.5 W 4 7 2 4 1010.2 1007.9 0.0
24/05:30am 24.4 27.4 20.9 81 2.3 W 6 6 3 3 1010.0 1007.7 0.0
24/05:00am 24.3 27.7 20.2 78 2.7 W 2 7 1 4 1009.6 1007.3 0.0
24/04:30am 24.8 27.6 20.5 77 2.8 NW 6 7 3 4 1009.2 1007.0 0.0
24/04:00am 25.2 27.9 20.7 76 3.0 NW 7 7 4 4 1009.2 1007.0 0.0
24/03:30am 25.5 28.1 20.5 74 3.3 NW 7 9 4 5 1009.3 1007.1 0.0
24/03:00am 25.7 28.3 20.5 73 3.4 WNW 7 9 4 5 1009.3 1007.1 0.0
24/02:30am 26.0 28.7 20.3 71 3.8 NW 6 7 3 4 1009.6 1007.3 0.0
24/02:00am 26.4 29.0 20.5 70 3.9 NW 7 9 4 5 1009.9 1007.6 0.0
24/01:30am 26.8 29.4 20.4 68 4.2 NW 7 9 4 5 1010.1 1007.8 0.0
24/01:00am 26.9 29.1 20.5 68 4.3 NW 9 11 5 6 1010.4 1008.1 0.0
24/12:30am 27.1 29.3 20.4 66 4.5 NNW 9 11 5 6 1010.5 1008.2 0.0
24/12:00am 27.7 29.9 20.3 64 4.9 NNW 9 11 5 6 1010.6 1008.3 0.0
 
Date/Time
CST
Temp
°C
App
Temp
°C
Dew
Point
°C
Rel
Hum
%
Delta-T
°C
Wind Press
QNH
hPa
Press
MSL
hPa
Rain since
9am
mm
Dir  Spd
km/h
Gust
km/h
Spd
kts
Gust
kts
23/11:30pm 28.1 29.5 20.4 63 5.1 NNW 13 17 7 9 1010.7 1008.4 0.0
23/11:00pm 28.6 30.4 20.3 60 5.5 N 11 15 6 8 1010.9 1008.6 0.0
23/10:30pm 29.2 30.4 19.8 57 6.2 N 13 17 7 9 1010.7 1008.4 0.0
23/10:00pm 29.7 30.3 19.4 54 6.8 N 15 17 8 9 1010.4 1008.1 0.0
23/09:30pm 29.7 30.6 18.5 51 7.3 N 11 13 6 7 1010.0 1007.7 0.0
23/09:00pm 30.4 31.2 18.2 48 7.9 N 11 13 6 7 1009.7 1007.4 0.0
23/08:30pm 31.2 31.9 17.9 45 8.6 N 11 13 6 7 1009.3 1007.1 0.0
23/08:00pm 31.1 31.7 17.8 45 8.6 NNE 11 13 6 7 1009.0 1006.8 0.0
23/07:30pm 31.0 32.1 18.0 45 8.5 N 9 13 5 7 1008.7 1006.5 0.0
23/07:00pm 32.4 33.6 18.2 42 9.3 N 9 11 5 6 1008.5 1006.2 0.0
23/06:30pm 34.1 34.9 17.3 36 10.9 NNE 9 15 5 8 1008.1 1005.8 0.0
23/06:00pm 35.1 34.0 16.4 32 12.0 NE 17 22 9 12 1008.1 1005.8 0.0
23/05:30pm 36.2 35.1 16.4 31 12.8 E 17 24 9 13 1007.7 1005.4 0.0
23/05:00pm 37.2 36.8 16.2 29 13.5 E 13 19 7 10 1007.6 1005.3 0.0
23/04:30pm 37.5 36.6 15.9 28 13.9 SE 15 22 8 12 1007.7 1005.4 0.0
23/04:00pm 37.7 37.3 17.1 29 13.5 E 15 24 8 13 1007.9 1005.6 0.0
23/03:30pm 37.3 37.3 16.3 29 13.6 E 11 19 6 10 1008.2 1005.9 0.0
23/03:00pm 37.1 35.9 16.1 29 13.5 SE 17 24 9 13 1008.6 1006.3 0.0
23/02:30pm 35.2 34.9 16.5 33 12.1 SE 13 20 7 11 1009.1 1006.9 0.0
23/02:00pm 36.6 36.8 16.7 30 12.9 SE 11 19 6 10 1009.5 1007.2 0.0
23/01:30pm 35.9 37.2 18.5 36 11.5 SE 9 20 5 11 1009.9 1007.6 0.0
23/01:00pm 36.4 37.5 18.0 33 12.1 ESE 9 17 5 9 1010.3 1008.0 0.0
23/12:30pm 35.7 37.1 17.4 33 12.0 ENE 6 11 3 6 1010.8 1008.5 0.0
23/12:00pm 34.7 35.9 18.3 38 10.8 SSW 9 15 5 8 1011.2 1008.9 0.0
23/11:30am 34.7 36.7 19.1 39 10.4 SSE 7 13 4 7 1011.6 1009.4 0.0
23/11:00am 34.4 36.8 19.6 41 9.9 E 6 9 3 5 1012.0 1009.8 0.0
23/10:30am 33.2 35.6 20.0 45 8.9 SSW 7 13 4 7 1012.2 1010.0 0.0
23/10:00am 32.0 35.2 20.6 51 7.7 S 4 9 2 5 1012.3 1010.1 0.0
23/09:30am 30.8 34.0 20.4 54 7.0 SSW 4 9 2 5 1012.1 1009.9 0.0
23/09:00am 29.7 32.3 20.5 57 6.2 SSW 7 9 4 5 1011.9 1009.7 0.0
23/08:30am 28.2 31.3 21.0 65 4.8 WSW 6 9 3 5 1011.8 1009.6 0.0
23/08:00am 26.7 29.9 21.2 72 3.7 SSW 6 9 3 5 1011.1 1008.8 0.0
23/07:30am 25.0 29.8 22.1 84 2.0 CALM 0 0 0 0 1010.7 1008.4 0.0
23/07:00am 24.0 28.4 21.3 85 1.8 CALM 0 0 0 0 1010.6 1008.3 0.0
23/06:30am 24.2 27.4 21.3 84 1.9 NNW 6 9 3 5 1010.5 1008.2 0.0
23/06:00am 24.6 28.0 21.7 84 1.9 NW 6 7 3 4 1010.2 1007.9 0.0
23/05:30am 24.3 28.6 21.2 83 2.1 CALM 0 0 0 0 1009.8 1007.5 0.0
23/05:00am 24.5 28.6 20.8 80 2.5 CALM 0 0 0 0 1009.7 1007.4 0.0
23/04:30am 24.9 27.9 20.8 78 2.7 NNW 6 7 3 4 1009.5 1007.2 0.0
23/04:00am 25.5 28.8 21.4 78 2.7 WNW 6 6 3 3 1009.1 1006.9 0.0
23/03:30am 25.6 28.9 21.5 78 2.8 WNW 6 6 3 3 1009.1 1006.9 0.0
23/03:00am 25.6 28.7 21.1 76 3.0 WNW 6 7 3 4 1009.2 1007.0 0.0
23/02:30am 25.8 28.8 21.2 76 3.1 NW 7 9 4 5 1009.8 1007.5 0.0
23/02:00am 25.8 29.0 21.2 76 3.1 WNW 6 7 3 4 1010.3 1008.0 0.0
23/01:30am 25.6 28.5 20.6 74 3.3 W 6 7 3 4 1010.7 1008.4 0.0
23/01:00am 26.1 29.0 20.7 72 3.6 NW 6 7 3 4 1010.8 1008.5 0.0
23/12:30am 26.6 29.2 20.4 69 4.1 NW 7 7 4 4 1010.9 1008.6 0.0
23/12:00am 26.8 29.6 20.4 68 4.2 WNW 6 7 3 4 1011.1 1008.8 0.0
 
Date/Time
CST
Temp
°C
App
Temp
°C
Dew
Point
°C
Rel
Hum
%
Delta-T
°C
Wind Press
QNH
hPa
Press
MSL
hPa
Rain since
9am
mm
Dir  Spd
km/h
Gust
km/h
Spd
kts
Gust
kts
22/11:30pm 27.1 30.2 20.2 66 4.6 NW 4 6 2 3 1011.3 1009.0 0.0
22/11:00pm 27.7 29.6 19.8 62 5.2 NNW 9 9 5 5 1011.4 1009.1 0.0
22/10:30pm 28.5 29.6 19.7 59 5.8 NNW 13 15 7 8 1011.3 1009.0 0.0
22/10:00pm 28.4 30.5 20.2 61 5.4 NNW 9 15 5 8 1011.1 1008.8 0.0
22/09:30pm 27.9 30.0 20.2 63 5.1 NNW 9 11 5 6 1010.8 1008.5 0.0
22/09:00pm 27.6 29.6 19.9 63 5.1 NNW 9 11 5 6 1010.3 1008.0 0.0
22/08:30pm 28.1 30.1 19.9 61 5.4 NNW 9 11 5 6 1009.8 1007.5 0.0
22/08:00pm 28.2 29.8 20.0 61 5.4 NNW 11 13 6 7 1009.3 1007.1 0.0
22/07:30pm 28.6 30.3 20.1 60 5.7 NW 11 15 6 8 1009.1 1006.9 0.0
22/07:00pm 29.6 30.8 19.9 56 6.4 NNW 13 19 7 10 1008.6 1006.3 0.0
22/06:30pm 30.2 31.9 19.3 52 7.2 NNW 9 13 5 7 1008.3 1006.0 0.0
22/06:00pm 31.7 31.5 17.6 43 9.1 NNW 15 19 8 10 1008.2 1005.9 0.0
22/05:30pm 32.7 32.6 16.9 38 10.2 N 13 20 7 11 1007.9 1005.6 0.0
22/05:00pm 34.0 33.1 17.7 38 10.6 E 19 28 10 15 1008.1 1005.8 0.0
22/04:42pm 34.1 31.5 17.8 38 10.6 E 28 41 15 22 1007.9 1005.6 0.0
22/04:30pm 36.5 36.1 17.1 31 12.7 E 15 20 8 11 1007.8 1005.5 0.0
22/04:00pm 37.0 37.0 17.1 31 13.0 ENE 13 17 7 9 1007.8 1005.5 0.0
22/03:30pm 37.3 37.7 17.3 30 13.1 NE 11 19 6 10 1007.9 1005.6 0.0
22/03:00pm 35.2 34.4 16.0 31 12.3 ENE 15 24 8 13 1008.2 1005.9 0.0
22/02:30pm 36.2 36.3 17.4 33 12.3 ENE 13 20 7 11 1008.6 1006.3 0.0
22/02:00pm 37.0 36.7 16.5 29 13.3 E 13 22 7 12 1009.0 1006.8 0.0
22/01:30pm 36.6 36.6 17.2 31 12.7 ENE 13 22 7 12 1009.3 1007.1 0.0
22/01:00pm 36.7 37.0 17.8 32 12.4 ENE 13 20 7 11 1009.8 1007.5 0.0
22/12:30pm 35.8 36.5 17.9 34 11.8 ESE 11 19 6 10 1010.2 1007.9 0.0
22/12:00pm 35.4 36.7 18.5 37 11.2 NE 9 15 5 8 1010.7 1008.4 0.0
22/11:30am 34.1 35.3 18.2 39 10.5 NNE 9 15 5 8 1010.9 1008.6 0.0
22/11:00am 34.3 36.5 19.1 40 10.1 NE 6 11 3 6 1011.1 1008.8 0.0
22/10:30am 33.4 35.9 20.2 46 8.9 NNW 7 13 4 7 1011.6 1009.4 0.0
22/10:00am 32.4 34.2 20.3 48 8.1 N 11 15 6 8 1011.8 1009.6 0.0

Other Formats:

Comma delimited format used in spreadsheet applications
http://www.bom.gov.au/fwo/IDD60801/IDD60801.94231.axf

JavaScript Object Notation format (JSON) in row-major order
http://www.bom.gov.au/fwo/IDD60801/IDD60801.94231.json